createdAt,value
2022-07-27T03:02:36.765Z,4.07
2022-07-27T03:05:06.745Z,3.83
2022-07-27T03:07:34.241Z,3.88
2022-07-27T03:10:01.496Z,3.53
2022-07-27T03:12:28.741Z,3.58
2022-07-27T03:14:57.060Z,3.70
2022-07-27T03:17:24.285Z,3.60
2022-07-27T03:19:51.574Z,3.97
2022-07-27T03:22:18.789Z,3.55
2022-07-27T03:24:46.498Z,3.70
2022-07-27T03:27:13.674Z,3.55
2022-07-27T03:29:40.961Z,3.53
2022-07-27T03:32:08.246Z,4.00
2022-07-27T03:34:35.488Z,3.72
2022-07-27T03:37:02.765Z,3.83
2022-07-27T03:39:30.053Z,3.75
2022-07-27T03:41:57.262Z,3.67
2022-07-27T03:44:24.602Z,3.80
2022-07-27T03:46:51.806Z,3.70
2022-07-27T03:49:19.190Z,3.58
2022-07-27T03:51:46.436Z,3.70
2022-07-27T03:54:13.777Z,3.65
2022-07-27T03:56:41.011Z,3.70
2022-07-27T03:59:08.398Z,3.90
2022-07-27T04:01:36.278Z,4.20
2022-07-27T04:04:03.685Z,3.70
2022-07-27T04:06:30.914Z,3.80
2022-07-27T04:09:08.130Z,4.00
2022-07-27T04:11:37.606Z,3.92
2022-07-27T04:14:12.763Z,4.35
2022-07-27T04:16:41.414Z,4.10
2022-07-27T04:19:09.139Z,3.80
2022-07-27T04:21:36.544Z,3.78
2022-07-27T04:24:03.973Z,3.60
2022-07-27T04:26:31.469Z,3.80
2022-07-27T04:28:58.731Z,3.40
2022-07-27T04:31:26.174Z,4.00
2022-07-27T04:33:53.770Z,3.50
2022-07-27T04:36:21.067Z,3.83
2022-07-27T04:38:48.439Z,3.80
2022-07-27T04:41:15.673Z,4.00
2022-07-27T04:43:42.902Z,4.20
2022-07-27T04:46:14.837Z,4.57
2022-07-27T04:48:49.156Z,4.03
2022-07-27T04:51:18.024Z,4.15
2022-07-27T04:53:54.088Z,3.75
2022-07-27T04:56:27.187Z,3.60
2022-07-27T04:58:55.733Z,4.07
2022-07-27T05:01:23.364Z,4.20
2022-07-27T05:03:51.027Z,4.07
2022-07-27T05:06:18.418Z,4.00
2022-07-27T05:08:45.607Z,4.60
2022-07-27T05:11:12.875Z,4.43
2022-07-27T05:13:40.638Z,4.03
2022-07-27T05:16:09.352Z,4.40
2022-07-27T05:18:37.886Z,4.10
2022-07-27T05:21:05.702Z,3.85
2022-07-27T05:23:33.505Z,4.40
2022-07-27T05:26:00.775Z,4.07
2022-07-27T05:28:28.396Z,4.35
2022-07-27T05:30:55.589Z,4.43
2022-07-27T05:33:22.781Z,3.90
2022-07-27T05:35:49.952Z,4.55
2022-07-27T05:38:17.193Z,4.55
2022-07-27T05:40:45.797Z,4.40
2022-07-27T05:43:13.093Z,4.30
2022-07-27T05:45:40.693Z,3.28
2022-07-27T05:48:07.942Z,3.85
2022-07-27T05:50:35.172Z,3.88
2022-07-27T05:53:02.530Z,3.75
2022-07-27T05:55:29.834Z,3.65
2022-07-27T05:57:57.011Z,4.03
2022-07-27T06:00:24.532Z,4.55
2022-07-27T06:02:51.794Z,3.97
2022-07-27T06:05:19.061Z,3.78
2022-07-27T06:08:06.465Z,4.95
2022-07-27T06:10:35.147Z,4.25
2022-07-27T06:13:04.221Z,4.30
2022-07-27T06:15:32.270Z,3.75
2022-07-27T06:17:59.686Z,4.10
2022-07-27T06:20:27.560Z,3.60
2022-07-27T06:22:59.653Z,3.75
2022-07-27T06:25:34.439Z,3.50
2022-07-27T06:28:04.735Z,4.07
2022-07-27T06:30:32.492Z,3.72
2022-07-27T06:32:59.915Z,4.15
2022-07-27T06:35:27.691Z,4.13
2022-07-27T06:37:54.936Z,4.20
2022-07-27T06:40:23.780Z,3.60
2022-07-27T06:42:52.550Z,3.45
2022-07-27T06:45:19.869Z,4.00
2022-07-27T06:47:49.264Z,4.10
2022-07-27T06:50:18.532Z,3.97
2022-07-27T06:52:46.158Z,3.92
2022-07-27T06:55:13.781Z,3.80
2022-07-27T06:57:42.731Z,3.60
2022-07-27T07:00:10.803Z,4.40
2022-07-27T07:02:38.307Z,3.72
2022-07-27T07:05:05.968Z,4.22
2022-07-27T07:07:33.126Z,3.83
2022-07-27T07:10:00.342Z,4.07
2022-07-27T07:12:28.464Z,4.03
2022-07-27T07:14:55.717Z,3.50
2022-07-27T07:17:22.918Z,3.80
2022-07-27T07:19:50.089Z,4.00
2022-07-27T07:22:17.288Z,4.75
2022-07-27T07:24:44.473Z,4.32
2022-07-27T07:27:11.724Z,3.78
2022-07-27T07:29:38.902Z,3.97
2022-07-27T07:32:06.445Z,3.70
2022-07-27T07:34:33.617Z,3.67
2022-07-27T07:37:00.777Z,3.17
2022-07-27T07:39:31.345Z,3.63
2022-07-27T07:41:59.032Z,3.90
2022-07-27T07:44:26.312Z,4.20
2022-07-27T07:46:53.625Z,4.57
2022-07-27T07:49:39.259Z,4.60
2022-07-27T07:52:07.993Z,4.13
2022-07-27T07:54:35.424Z,3.97
2022-07-27T07:57:02.718Z,4.32
2022-07-27T07:59:29.982Z,4.00
2022-07-27T08:01:57.241Z,4.10
2022-07-27T08:04:24.462Z,4.18
2022-07-27T08:06:52.302Z,4.68
2022-07-27T08:09:21.667Z,4.68
2022-07-27T08:11:48.866Z,5.00
2022-07-27T08:14:16.198Z,3.80
2022-07-27T08:16:43.451Z,4.70
2022-07-27T08:19:11.885Z,4.28
2022-07-27T08:21:39.425Z,4.20
2022-07-27T08:24:06.827Z,4.32
2022-07-27T08:26:34.021Z,4.13
2022-07-27T08:29:11.241Z,4.05
2022-07-27T08:31:52.736Z,3.60
2022-07-27T08:34:20.652Z,3.80
2022-07-27T08:36:47.860Z,3.55
2022-07-27T08:39:52.669Z,3.72
2022-07-27T08:42:04.559Z,3.53
2022-07-27T08:44:33.462Z,3.47
2022-07-27T08:47:04.359Z,3.53
2022-07-27T08:49:43.046Z,3.72
2022-07-27T08:52:12.176Z,4.10
2022-07-27T08:54:40.939Z,3.55
2022-07-27T08:57:09.517Z,4.05
2022-07-27T08:59:37.270Z,3.80
2022-07-27T09:02:09.026Z,3.90
2022-07-27T09:04:36.412Z,3.70
2022-07-27T09:07:03.677Z,3.30
2022-07-27T09:09:46.887Z,3.70
2022-07-27T09:12:14.210Z,3.80
2022-07-27T09:14:42.250Z,3.95
2022-07-27T09:20:19.741Z,4.20
2022-07-27T09:22:53.590Z,3.80
2022-07-27T09:25:52.583Z,4.05
2022-07-27T09:28:13.982Z,3.58
2022-07-27T09:30:43.602Z,4.35
2022-07-27T09:33:11.417Z,3.90
2022-07-27T09:35:38.875Z,4.03
2022-07-27T09:38:25.091Z,3.40
2022-07-27T09:41:06.455Z,3.17
2022-07-27T09:44:29.912Z,3.30
2022-07-27T09:46:39.206Z,3.63
2022-07-27T09:49:25.385Z,3.85
2022-07-27T09:52:01.672Z,3.70
2022-07-27T09:54:43.326Z,2.85
2022-07-27T09:57:10.904Z,3.45
2022-07-27T09:59:38.175Z,3.33
2022-07-27T10:02:05.624Z,3.28
2022-07-27T10:04:33.866Z,3.67
2022-07-27T10:07:04.442Z,3.80
2022-07-27T10:09:33.352Z,3.17
2022-07-27T10:12:01.830Z,3.47
2022-07-27T10:14:29.169Z,3.00
2022-07-27T10:16:56.849Z,2.80
2022-07-27T10:19:30.964Z,2.67
2022-07-27T10:21:58.141Z,2.60
2022-07-27T10:24:37.619Z,2.20
2022-07-27T10:27:28.168Z,2.70
2022-07-27T10:29:57.564Z,3.03
2022-07-27T10:32:32.503Z,2.97
2022-07-27T10:35:01.496Z,3.42
2022-07-27T10:37:29.796Z,3.10
2022-07-27T10:40:20.748Z,3.00
2022-07-27T10:42:54.242Z,2.92
2022-07-27T10:45:22.425Z,2.70
2022-07-27T10:47:52.346Z,3.28
2022-07-27T10:50:27.035Z,2.92
2022-07-27T10:52:56.892Z,2.70
2022-07-27T10:55:30.129Z,2.65
2022-07-27T10:58:03.303Z,2.50
2022-07-27T11:00:53.970Z,2.13
2022-07-27T11:03:23.285Z,2.40
2022-07-27T11:06:31.830Z,2.50
2022-07-27T11:11:53.570Z,3.60
2022-07-27T11:14:30.114Z,3.50
2022-07-27T11:17:24.440Z,3.35
2022-07-27T11:19:58.424Z,3.67
2022-07-27T11:23:20.563Z,3.15
2022-07-27T11:25:27.220Z,3.30
2022-07-27T11:27:54.556Z,3.28
2022-07-27T11:30:28.763Z,3.20
2022-07-27T11:32:56.660Z,2.75
2022-07-27T11:35:24.121Z,2.80
2022-07-27T11:37:59.650Z,3.03
2022-07-27T11:43:33.871Z,2.53
2022-07-27T11:46:15.684Z,2.65
2022-07-27T11:49:06.060Z,2.80
2022-07-27T11:51:35.899Z,2.58
2022-07-27T11:54:06.599Z,2.50
2022-07-27T11:56:36.755Z,2.60
2022-07-27T11:59:09.219Z,2.60
2022-07-27T12:01:56.116Z,2.60
2022-07-27T12:04:24.658Z,2.70
2022-07-27T12:06:59.395Z,2.28
2022-07-27T12:09:27.516Z,2.95
2022-07-27T12:12:20.710Z,2.50
2022-07-27T12:15:43.012Z,2.15
2022-07-27T12:17:59.280Z,2.55
2022-07-27T12:20:34.707Z,2.72
2022-07-27T12:23:08.958Z,2.70
2022-07-27T12:25:36.836Z,2.67
2022-07-27T12:28:05.221Z,2.35
2022-07-27T12:30:38.194Z,2.25
2022-07-27T12:33:07.712Z,2.30
2022-07-27T12:35:47.080Z,2.15
2022-07-27T12:38:14.540Z,2.20
2022-07-27T12:40:59.895Z,2.70
2022-07-27T12:43:28.287Z,2.20
2022-07-27T12:45:56.051Z,2.65
2022-07-27T12:48:28.821Z,2.28
2022-07-27T12:50:59.832Z,2.42
2022-07-27T12:53:27.544Z,2.58
2022-07-27T12:55:59.761Z,2.15
2022-07-27T12:58:29.873Z,3.05
2022-07-27T13:00:57.283Z,2.70
2022-07-27T13:03:24.588Z,2.60
2022-07-27T13:05:51.813Z,2.70
2022-07-27T13:08:18.989Z,2.83
2022-07-27T13:10:48.039Z,2.75
2022-07-27T13:13:15.480Z,2.60
2022-07-27T13:15:42.668Z,2.65
2022-07-27T13:18:09.873Z,2.67
2022-07-27T13:20:37.068Z,2.63
2022-07-27T13:23:08.902Z,2.70
2022-07-27T13:25:39.699Z,2.67
2022-07-27T13:28:10.488Z,2.63
2022-07-27T13:30:37.890Z,2.65
2022-07-27T13:33:05.118Z,2.78
2022-07-27T13:35:32.503Z,2.50
2022-07-27T13:37:59.770Z,2.70
2022-07-27T13:40:26.953Z,2.70
2022-07-27T13:42:54.281Z,2.70
2022-07-27T13:45:21.624Z,3.03
2022-07-27T13:47:48.964Z,2.63
2022-07-27T13:50:19.803Z,2.40
2022-07-27T13:52:48.412Z,2.90
2022-07-27T13:55:16.950Z,2.58
2022-07-27T13:57:44.370Z,2.40
2022-07-27T14:00:12.586Z,2.53
2022-07-27T14:02:39.991Z,2.70
2022-07-27T14:05:10.233Z,2.67
2022-07-27T14:07:42.011Z,2.67
2022-07-27T14:10:30.911Z,2.67
2022-07-27T14:13:07.443Z,2.75
2022-07-27T14:15:50.776Z,2.80
2022-07-27T14:18:27.593Z,2.70
2022-07-27T14:20:56.657Z,2.80
2022-07-27T14:23:25.209Z,2.80
2022-07-27T14:25:53.591Z,2.75
2022-07-27T14:28:21.442Z,2.78
2022-07-27T14:30:49.102Z,2.80
2022-07-27T14:33:17.228Z,2.65
2022-07-27T14:35:45.940Z,2.60
2022-07-27T14:38:13.726Z,3.17
2022-07-27T14:40:53.771Z,2.78
2022-07-27T14:43:22.156Z,2.83
2022-07-27T14:45:49.618Z,2.90
2022-07-27T14:48:28.189Z,3.05
2022-07-27T14:51:00.968Z,2.92
2022-07-27T14:53:28.398Z,3.08
2022-07-27T14:55:55.634Z,2.92
2022-07-27T14:58:22.993Z,2.90
2022-07-27T15:00:50.280Z,2.75
2022-07-27T15:03:19.769Z,2.88
2022-07-27T15:05:49.707Z,2.80
2022-07-27T15:08:20.149Z,2.70
2022-07-27T15:10:48.754Z,2.75
2022-07-27T15:13:16.929Z,2.72
2022-07-27T15:15:44.776Z,2.58
2022-07-27T15:18:11.981Z,2.60
2022-07-27T15:20:39.510Z,2.72
2022-07-27T15:23:06.880Z,2.60
2022-07-27T15:25:34.246Z,2.47
2022-07-27T15:28:01.604Z,2.47
2022-07-27T15:30:28.966Z,2.40
2022-07-27T15:32:56.186Z,2.47
2022-07-27T15:35:23.456Z,2.78
2022-07-27T15:37:53.933Z,2.55
2022-07-27T15:40:38.048Z,2.40
2022-07-27T15:43:07.498Z,2.63
2022-07-27T15:45:38.911Z,2.80
2022-07-27T15:48:08.538Z,2.80
2022-07-27T15:50:37.427Z,2.80
2022-07-27T15:53:05.749Z,2.58
2022-07-27T15:55:33.953Z,2.50
2022-07-27T15:58:01.342Z,2.67
2022-07-27T16:00:28.959Z,2.88
2022-07-27T16:02:56.851Z,2.50
2022-07-27T16:05:24.234Z,2.83
2022-07-27T16:07:51.414Z,2.78
2022-07-27T16:10:18.729Z,2.75
2022-07-27T16:12:45.989Z,2.80
2022-07-27T16:15:13.204Z,2.47
2022-07-27T16:17:40.577Z,2.83
2022-07-27T16:20:08.322Z,2.20
2022-07-27T16:22:37.957Z,2.70
2022-07-27T16:25:05.608Z,2.58
2022-07-27T16:27:32.820Z,2.50
2022-07-27T16:30:00.089Z,2.70
2022-07-27T16:32:27.324Z,2.58
2022-07-27T16:34:54.517Z,2.33
2022-07-27T16:37:21.747Z,2.60
2022-07-27T16:39:48.886Z,2.78
2022-07-27T16:42:16.130Z,2.42
2022-07-27T16:44:43.311Z,2.35
2022-07-27T16:47:10.600Z,2.50
2022-07-27T16:49:37.802Z,2.53
2022-07-27T16:52:06.229Z,2.50
2022-07-27T16:54:38.826Z,2.22
2022-07-27T16:57:09.129Z,2.72
2022-07-27T16:59:39.041Z,2.50
2022-07-27T17:02:06.296Z,2.55
2022-07-27T17:04:34.151Z,2.70
2022-07-27T17:07:01.448Z,2.47
2022-07-27T17:09:28.829Z,2.25
2022-07-27T17:11:56.066Z,2.42
2022-07-27T17:14:23.441Z,2.50
2022-07-27T17:16:52.198Z,2.45
2022-07-27T17:19:20.369Z,2.35
2022-07-27T17:21:48.043Z,2.50
2022-07-27T17:24:15.560Z,2.83
2022-07-27T17:26:42.817Z,2.42
2022-07-27T17:29:10.336Z,2.20
2022-07-27T17:31:37.937Z,2.78
2022-07-27T17:34:05.221Z,2.80
2022-07-27T17:36:32.460Z,2.63
2022-07-27T17:39:00.961Z,2.72
2022-07-27T17:41:28.173Z,2.45
2022-07-27T17:43:55.464Z,2.50
2022-07-27T17:46:23.140Z,2.55
2022-07-27T17:48:51.654Z,2.80
2022-07-27T17:51:19.463Z,2.70
2022-07-27T17:53:47.093Z,2.50
2022-07-27T17:56:14.349Z,3.05
2022-07-27T17:58:43.031Z,2.70
2022-07-27T18:01:10.421Z,2.30
2022-07-27T18:03:37.791Z,2.65
2022-07-27T18:06:05.093Z,2.83
2022-07-27T18:08:32.271Z,2.70
2022-07-27T18:10:59.609Z,2.83
2022-07-27T18:13:37.897Z,2.70
2022-07-27T18:16:11.965Z,3.15
2022-07-27T18:18:41.306Z,3.00
2022-07-27T18:21:10.619Z,2.80
2022-07-27T18:23:38.251Z,2.80
2022-07-27T18:26:06.050Z,2.53
2022-07-27T18:28:39.498Z,2.70
2022-07-27T18:31:09.783Z,3.00
2022-07-27T18:33:37.899Z,2.50
2022-07-27T18:36:06.287Z,2.97
2022-07-27T18:38:33.728Z,2.60
2022-07-27T18:41:01.029Z,2.90
2022-07-27T18:43:28.226Z,2.80
2022-07-27T18:45:55.769Z,2.85
2022-07-27T18:48:23.037Z,2.85
2022-07-27T18:50:51.877Z,2.80
2022-07-27T18:53:19.296Z,2.70
2022-07-27T18:55:46.492Z,3.40
2022-07-27T18:58:13.719Z,3.00
2022-07-27T19:00:41.004Z,2.92
2022-07-27T19:03:08.298Z,3.00
2022-07-27T19:05:40.705Z,3.17
2022-07-27T19:08:12.881Z,3.10
2022-07-27T19:10:41.538Z,3.33
2022-07-27T19:13:09.065Z,2.75
2022-07-27T19:15:37.087Z,3.20
2022-07-27T19:18:05.169Z,2.83
2022-07-27T19:20:32.469Z,3.40
2022-07-27T19:23:00.728Z,3.05
2022-07-27T19:25:30.241Z,3.00
2022-07-27T19:27:57.656Z,2.92
2022-07-27T19:30:24.977Z,3.20
2022-07-27T19:32:52.313Z,2.80
2022-07-27T19:35:19.619Z,3.30
2022-07-27T19:37:46.875Z,3.58
2022-07-27T19:40:42.838Z,3.28
2022-07-27T19:43:06.383Z,3.38
2022-07-27T19:45:35.245Z,3.00
2022-07-27T19:48:05.520Z,3.67
2022-07-27T19:50:33.019Z,3.92
2022-07-27T19:53:00.934Z,3.92
2022-07-27T19:55:28.147Z,3.80
2022-07-27T19:57:55.366Z,3.90
2022-07-27T20:00:22.713Z,3.70
2022-07-27T20:02:50.322Z,4.13
2022-07-27T20:05:17.954Z,4.13
2022-07-27T20:07:45.882Z,4.10
2022-07-27T20:10:13.219Z,4.15
2022-07-27T20:12:40.482Z,4.35
2022-07-27T20:15:08.198Z,4.68
2022-07-27T20:17:40.816Z,4.82
2022-07-27T20:20:10.761Z,4.30
2022-07-27T20:22:41.204Z,4.40
2022-07-27T20:25:10.638Z,4.22
2022-07-27T20:27:38.821Z,4.60
2022-07-27T20:30:07.224Z,4.45
2022-07-27T20:32:35.203Z,4.20
2022-07-27T20:35:02.644Z,4.40
2022-07-27T20:37:29.993Z,5.00
2022-07-27T20:39:57.207Z,4.28
2022-07-27T20:42:24.522Z,5.03
2022-07-27T20:44:51.758Z,4.88
2022-07-27T20:47:19.079Z,4.20
2022-07-27T20:49:46.341Z,4.35
2022-07-27T20:52:13.533Z,4.38
2022-07-27T20:54:40.843Z,3.80
2022-07-27T20:57:08.118Z,5.25
2022-07-27T20:59:35.468Z,4.88
